Time;durP1;ratioP1;P1;durP2;ratioP2;P2;SDS_P1;SDS_P2;PMS_P1;PMS_P2;Temp;Humidity;BMP_temperature;BMP_pressure;BME280_temperature;BME280_humidity;BME280_pressure;Samples;Min_cycle;Max_cycle;Signal;HPM_P1;HPM_P2
2023/05/01 00:00:14;;;;;;;10.37;4.37;;;10.20;99.90;;;;;;5049975;28;20172;-78
2023/05/01 00:02:40;;;;;;;9.95;5.35;;;10.00;99.90;;;;;;5028946;28;20408;-77
2023/05/01 00:05:07;;;;;;;10.33;4.57;;;10.00;99.90;;;;;;5030485;28;20299;-78
2023/05/01 00:07:32;;;;;;;7.43;4.03;;;10.00;99.90;;;;;;5027892;28;20263;-77
2023/05/01 00:09:58;;;;;;;7.60;4.60;;;10.00;99.90;;;;;;5036113;28;20181;-78
2023/05/01 00:12:24;;;;;;;7.70;4.33;;;10.00;99.90;;;;;;5045848;28;20172;-77
2023/05/01 00:14:50;;;;;;;8.97;4.57;;;10.00;99.90;;;;;;5046670;28;20207;-78
2023/05/01 00:17:16;;;;;;;7.10;4.17;;;9.90;99.90;;;;;;5044501;28;20207;-78
2023/05/01 00:19:41;;;;;;;9.13;4.23;;;9.90;99.90;;;;;;5046055;28;20231;-77
2023/05/01 00:22:07;;;;;;;10.83;4.87;;;9.80;99.90;;;;;;5041618;28;20409;-75
2023/05/01 00:24:33;;;;;;;8.87;5.07;;;9.80;99.90;;;;;;5044599;28;20275;-76
2023/05/01 00:26:58;;;;;;;9.20;4.70;;;9.80;99.90;;;;;;5049792;28;20264;-77
2023/05/01 00:29:24;;;;;;;9.53;4.33;;;9.80;99.90;;;;;;5041923;28;20215;-77
2023/05/01 00:31:50;;;;;;;12.77;4.70;;;9.70;99.90;;;;;;5047810;28;20634;-76
2023/05/01 00:34:16;;;;;;;9.87;4.83;;;9.70;99.90;;;;;;5052548;28;20211;-76
2023/05/01 00:36:42;;;;;;;9.87;4.70;;;9.70;99.90;;;;;;5050707;28;20239;-76
2023/05/01 00:39:07;;;;;;;10.50;4.73;;;9.70;99.90;;;;;;5051273;28;20262;-76
2023/05/01 00:41:34;;;;;;;11.30;4.50;;;9.70;99.90;;;;;;5049194;28;20645;-76
2023/05/01 00:44:00;;;;;;;7.70;4.87;;;9.60;99.90;;;;;;5051469;28;20638;-76
2023/05/01 00:46:27;;;;;;;5.27;4.07;;;9.50;99.90;;;;;;5046109;28;20203;-75
2023/05/01 00:48:52;;;;;;;9.13;4.37;;;9.50;99.90;;;;;;5051100;28;20614;-77
2023/05/01 00:51:19;;;;;;;10.20;4.77;;;9.60;99.90;;;;;;5048149;28;20207;-77
2023/05/01 00:53:45;;;;;;;9.40;4.63;;;9.50;99.90;;;;;;5045890;28;20243;-76
2023/05/01 00:56:11;;;;;;;6.47;4.20;;;9.40;99.90;;;;;;5045801;28;20231;-77
2023/05/01 00:58:37;;;;;;;5.10;3.87;;;9.30;99.90;;;;;;5043857;28;20237;-77
2023/05/01 01:01:08;;;;;;;9.73;3.93;;;9.20;99.90;;;;;;5045812;28;20233;-77
2023/05/01 01:03:34;;;;;;;6.07;3.83;;;9.40;99.90;;;;;;5043170;28;20172;-77
2023/05/01 01:06:06;;;;;;;11.60;5.23;;;9.40;99.90;;;;;;5045285;28;20218;-77
2023/05/01 01:08:42;;;;;;;11.17;4.63;;;9.40;99.90;;;;;;5040670;28;20288;-75
2023/05/01 01:11:24;;;;;;;8.10;4.33;;;9.30;99.90;;;;;;5051998;28;20709;-77
2023/05/01 01:14:12;;;;;;;7.87;4.13;;;9.30;99.90;;;;;;5051787;28;20204;-77
2023/05/01 01:16:40;;;;;;;12.10;4.17;;;9.30;99.90;;;;;;5051582;28;20243;-77
2023/05/01 01:19:24;;;;;;;7.23;4.23;;;9.20;99.90;;;;;;5051562;28;20214;-77
2023/05/01 01:21:54;;;;;;;8.00;4.50;;;9.30;99.90;;;;;;5050098;28;20179;-77
2023/05/01 01:24:57;;;;;;;6.50;4.23;;;9.20;99.90;;;;;;5049487;28;20199;-77
2023/05/01 01:27:35;;;;;;;6.13;4.27;;;9.20;99.90;;;;;;5049578;28;20688;-76
2023/05/01 01:30:20;;;;;;;9.13;4.77;;;9.10;99.90;;;;;;5050409;28;20207;-76
2023/05/01 01:33:04;;;;;;;8.33;4.50;;;9.10;99.90;;;;;;5050214;28;20239;-77
2023/05/01 01:35:32;;;;;;;9.47;4.70;;;9.00;99.90;;;;;;5054026;23;20328;-70
2023/05/01 01:38:21;;;;;;;9.43;4.20;;;9.00;99.90;;;;;;5009577;28;20217;-71
2023/05/01 01:40:58;;;;;;;8.60;4.40;;;9.00;99.90;;;;;;5005588;28;20275;-68
2023/05/01 01:43:25;;;;;;;8.80;4.20;;;8.90;99.90;;;;;;5000581;28;20206;-71
2023/05/01 01:46:02;;;;;;;8.97;4.40;;;8.90;99.90;;;;;;5007675;28;20205;-71
2023/05/01 01:48:34;;;;;;;6.43;4.30;;;8.90;99.90;;;;;;5001165;28;20183;-71
2023/05/01 01:51:07;;;;;;;12.90;5.70;;;9.00;99.90;;;;;;5019386;28;20292;-71
2023/05/01 01:53:36;;;;;;;12.67;5.47;;;8.90;99.90;;;;;;5010241;28;20695;-70
2023/05/01 01:56:05;;;;;;;9.90;5.30;;;8.90;99.90;;;;;;5004690;28;20210;-72
2023/05/01 01:58:33;;;;;;;11.20;4.90;;;8.80;99.90;;;;;;5006315;28;20209;-70
2023/05/01 02:01:00;;;;;;;9.20;4.67;;;8.80;99.90;;;;;;5002090;28;20213;-72
2023/05/01 02:03:26;;;;;;;13.00;5.03;;;8.80;99.90;;;;;;5005159;28;20691;-72
2023/05/01 02:05:55;;;;;;;10.27;5.07;;;8.70;99.90;;;;;;5003031;28;20209;-72
2023/05/01 02:08:23;;;;;;;10.03;4.30;;;8.70;99.90;;;;;;5003298;28;20212;-72
2023/05/01 02:10:50;;;;;;;8.00;4.93;;;8.60;99.90;;;;;;5007273;28;20267;-72
2023/05/01 02:13:18;;;;;;;11.63;5.30;;;8.60;99.90;;;;;;5005229;28;20263;-72
2023/05/01 02:15:46;;;;;;;10.33;4.83;;;8.60;99.90;;;;;;5002851;28;20708;-72
2023/05/01 02:18:13;;;;;;;10.43;4.40;;;8.60;99.90;;;;;;5004902;28;20192;-70
2023/05/01 02:20:40;;;;;;;9.83;5.07;;;8.70;99.90;;;;;;5002523;28;20212;-72
2023/05/01 02:23:08;;;;;;;9.47;4.73;;;8.70;99.90;;;;;;5003127;28;20683;-74
2023/05/01 02:25:38;;;;;;;9.53;4.57;;;8.60;99.90;;;;;;5006972;28;20222;-70
2023/05/01 02:28:11;;;;;;;11.07;5.97;;;8.70;99.90;;;;;;5003418;28;20209;-72
2023/05/01 02:30:37;;;;;;;7.57;4.83;;;8.70;99.90;;;;;;5006149;28;20183;-73
2023/05/01 02:33:05;;;;;;;9.23;4.83;;;8.70;99.90;;;;;;5009832;28;20649;-72
2023/05/01 02:35:31;;;;;;;11.40;5.47;;;8.60;99.90;;;;;;5008184;28;20240;-73
2023/05/01 02:37:56;;;;;;;9.43;5.10;;;8.60;99.90;;;;;;5001559;28;20231;-72
2023/05/01 02:40:22;;;;;;;7.83;5.27;;;8.70;99.90;;;;;;5010953;28;20671;-72
2023/05/01 02:42:50;;;;;;;9.63;5.47;;;8.60;99.90;;;;;;5010743;28;20547;-71
2023/05/01 02:45:21;;;;;;;8.43;5.03;;;8.50;99.90;;;;;;5012448;28;20184;-72
2023/05/01 02:47:54;;;;;;;7.67;4.97;;;8.50;99.90;;;;;;5013606;28;20221;-72
2023/05/01 02:50:22;;;;;;;9.57;5.50;;;8.40;99.90;;;;;;5005053;28;20300;-73
2023/05/01 02:52:48;;;;;;;11.97;5.83;;;8.40;99.90;;;;;;5010114;28;20235;-71
2023/05/01 02:55:15;;;;;;;10.80;5.30;;;8.30;99.90;;;;;;5009093;28;20255;-72
2023/05/01 02:57:41;;;;;;;10.97;5.60;;;8.20;99.90;;;;;;5004122;28;20177;-71
2023/05/01 03:00:09;;;;;;;10.40;6.00;;;8.10;99.90;;;;;;5003992;28;20173;-72
2023/05/01 03:02:34;;;;;;;9.73;5.00;;;8.10;99.90;;;;;;5004617;28;20754;-71
2023/05/01 03:05:00;;;;;;;11.37;5.77;;;7.90;99.90;;;;;;5006934;28;20214;-69
2023/05/01 03:07:33;;;;;;;10.23;5.50;;;7.90;99.90;;;;;;5007559;28;20208;-73
2023/05/01 03:10:03;;;;;;;10.87;5.53;;;7.90;99.90;;;;;;5007147;28;20212;-72
2023/05/01 03:12:29;;;;;;;10.27;5.80;;;7.90;99.90;;;;;;5011797;28;20169;-71
2023/05/01 03:14:55;;;;;;;10.53;5.23;;;7.90;99.90;;;;;;5006676;28;20613;-73
2023/05/01 03:17:21;;;;;;;13.20;5.70;;;7.80;99.90;;;;;;5010371;28;20228;-74
2023/05/01 03:19:48;;;;;;;13.90;5.67;;;7.90;99.90;;;;;;5006561;28;20209;-71
2023/05/01 03:22:14;;;;;;;9.40;5.93;;;7.90;99.90;;;;;;5007515;28;20223;-71
2023/05/01 03:24:40;;;;;;;8.77;5.63;;;7.90;99.90;;;;;;5004826;28;20264;-70
2023/05/01 03:27:06;;;;;;;9.73;5.60;;;7.90;99.90;;;;;;5007118;28;20212;-68
2023/05/01 03:29:33;;;;;;;11.80;5.57;;;7.70;99.90;;;;;;5003769;28;20204;-68
2023/05/01 03:31:59;;;;;;;9.17;5.30;;;7.60;99.90;;;;;;5010463;28;20205;-71
2023/05/01 03:34:25;;;;;;;10.23;5.83;;;7.70;99.90;;;;;;5008164;28;20307;-70
2023/05/01 03:36:51;;;;;;;8.13;5.23;;;7.70;99.90;;;;;;5007424;28;20239;-70
2023/05/01 03:39:16;;;;;;;10.67;5.63;;;7.70;99.90;;;;;;5003184;28;20268;-70
2023/05/01 03:41:42;;;;;;;10.70;5.70;;;7.70;99.90;;;;;;5000330;28;20209;-71
2023/05/01 03:44:08;;;;;;;8.00;5.40;;;7.70;99.90;;;;;;5009816;28;20387;-70
2023/05/01 03:46:33;;;;;;;7.47;4.90;;;7.80;99.90;;;;;;5010204;28;20205;-70
2023/05/01 03:48:59;;;;;;;8.53;5.33;;;7.80;99.90;;;;;;5001593;28;20300;-71
2023/05/01 03:51:26;;;;;;;8.67;4.77;;;7.80;99.90;;;;;;5005757;28;20173;-71
2023/05/01 03:53:51;;;;;;;8.63;5.40;;;7.90;99.90;;;;;;5005053;28;20210;-71
2023/05/01 03:56:17;;;;;;;12.30;6.20;;;7.80;99.90;;;;;;5007999;28;20325;-70
2023/05/01 03:58:43;;;;;;;9.13;5.63;;;7.80;99.90;;;;;;5005167;28;20403;-70
2023/05/01 04:01:09;;;;;;;8.17;5.03;;;7.90;99.90;;;;;;5011228;28;20209;-71
2023/05/01 04:03:34;;;;;;;9.77;4.77;;;7.90;99.90;;;;;;5008915;28;20173;-69
2023/05/01 04:06:00;;;;;;;8.40;5.40;;;7.90;99.90;;;;;;5010575;28;20223;-71
2023/05/01 04:08:26;;;;;;;10.63;5.37;;;7.90;99.90;;;;;;5008125;28;20209;-70
2023/05/01 04:10:51;;;;;;;9.80;4.63;;;8.00;99.90;;;;;;5005025;28;20213;-71
2023/05/01 04:13:17;;;;;;;8.83;4.80;;;8.10;99.90;;;;;;5010652;28;20221;-71
2023/05/01 04:15:45;;;;;;;9.23;5.20;;;8.00;99.90;;;;;;5004045;28;20214;-71
2023/05/01 04:18:11;;;;;;;10.97;5.37;;;8.00;99.90;;;;;;5012535;28;20273;-71
2023/05/01 04:20:39;;;;;;;8.50;4.77;;;8.20;99.90;;;;;;5001787;28;20297;-71
2023/05/01 04:23:04;;;;;;;9.67;5.30;;;8.20;99.90;;;;;;5005554;28;20212;-70
2023/05/01 04:25:30;;;;;;;9.27;5.53;;;8.40;99.90;;;;;;5013438;28;20711;-71
2023/05/01 04:27:56;;;;;;;7.93;5.40;;;8.40;99.90;;;;;;5011959;28;20261;-71
2023/05/01 04:30:22;;;;;;;8.37;5.03;;;8.70;99.90;;;;;;5012116;28;20181;-71
2023/05/01 04:32:47;;;;;;;9.77;5.40;;;8.70;99.90;;;;;;5009916;28;20213;-73
2023/05/01 04:35:13;;;;;;;11.37;5.13;;;9.20;99.90;;;;;;5009013;28;20212;-71
2023/05/01 04:37:39;;;;;;;9.70;4.37;;;10.30;99.90;;;;;;5007812;28;20217;-71
2023/05/01 04:40:05;;;;;;;8.27;4.30;;;11.10;99.90;;;;;;5005645;28;20217;-71
2023/05/01 04:42:31;;;;;;;10.93;4.60;;;11.10;99.90;;;;;;5008074;28;20169;-69
2023/05/01 04:45:00;;;;;;;10.40;4.83;;;11.20;99.90;;;;;;5009228;28;20225;-72
2023/05/01 04:47:26;;;;;;;7.10;4.50;;;11.70;99.90;;;;;;5008334;28;20721;-68
2023/05/01 04:49:52;;;;;;;7.32;4.53;;;11.50;99.90;;;;;;5003784;28;20248;-71
2023/05/01 04:52:17;;;;;;;8.10;4.38;;;11.90;99.90;;;;;;5009484;28;20699;-72
2023/05/01 04:54:43;;;;;;;8.38;4.15;;;11.70;99.90;;;;;;5002521;28;20215;-71
2023/05/01 04:57:08;;;;;;;6.25;4.22;;;11.70;99.90;;;;;;5006043;28;20200;-72
2023/05/01 04:59:34;;;;;;;9.90;4.53;;;12.40;99.90;;;;;;5008152;28;20209;-71
2023/05/01 05:02:00;;;;;;;7.30;4.50;;;13.00;99.90;;;;;;5007911;28;20694;-72
2023/05/01 05:04:25;;;;;;;6.68;4.05;;;13.50;99.90;;;;;;5012220;28;20726;-72
2023/05/01 05:06:51;;;;;;;6.90;4.28;;;13.20;99.90;;;;;;5009345;28;20733;-72
2023/05/01 05:09:17;;;;;;;8.73;4.60;;;13.80;99.90;;;;;;5009364;28;20718;-72
2023/05/01 05:11:42;;;;;;;8.15;4.65;;;13.70;99.90;;;;;;5008651;28;20229;-71
2023/05/01 05:14:09;;;;;;;9.13;4.68;;;14.00;99.90;;;;;;5004816;28;20742;-70
2023/05/01 05:16:35;;;;;;;7.45;4.43;;;14.20;99.90;;;;;;5009240;28;20270;-71
2023/05/01 05:19:00;;;;;;;8.07;4.38;;;14.80;99.90;;;;;;5005894;28;20240;-71
2023/05/01 05:21:26;;;;;;;8.57;4.90;;;14.30;99.90;;;;;;5006289;28;20218;-72
2023/05/01 05:23:51;;;;;;;5.60;4.13;;;13.90;99.90;;;;;;5005550;28;20216;-71
2023/05/01 05:26:17;;;;;;;8.68;4.43;;;14.80;99.90;;;;;;5011078;28;20305;-71
2023/05/01 05:28:44;;;;;;;9.45;4.90;;;14.90;99.90;;;;;;5001942;28;20720;-70
2023/05/01 05:31:09;;;;;;;6.70;4.38;;;14.90;99.90;;;;;;5006234;28;20212;-72
2023/05/01 05:33:35;;;;;;;8.90;4.28;;;15.50;99.90;;;;;;5001200;28;20178;-72
2023/05/01 05:36:00;;;;;;;10.82;4.80;;;16.20;99.90;;;;;;5009627;28;20217;-73
2023/05/01 05:38:26;;;;;;;8.63;4.50;;;16.20;99.90;;;;;;5001236;28;20205;-72
2023/05/01 05:40:53;;;;;;;11.38;4.68;;;16.20;99.90;;;;;;5009198;28;20227;-72
2023/05/01 05:43:19;;;;;;;8.00;4.05;;;16.20;99.90;;;;;;5011319;28;20817;-72
2023/05/01 05:45:44;;;;;;;7.28;4.07;;;16.40;99.90;;;;;;5010481;28;20189;-70
2023/05/01 05:48:10;;;;;;;6.05;4.10;;;16.80;99.90;;;;;;5007371;28;20256;-71
2023/05/01 05:50:36;;;;;;;6.70;3.80;;;17.70;99.90;;;;;;5007345;28;20203;-72
2023/05/01 05:53:01;;;;;;;6.45;4.10;;;18.40;99.90;;;;;;5009770;28;20699;-72
2023/05/01 05:55:27;;;;;;;7.25;4.05;;;18.40;99.90;;;;;;5010680;28;20209;-72
2023/05/01 05:57:52;;;;;;;5.40;4.13;;;17.50;99.90;;;;;;5006374;28;20170;-72
2023/05/01 06:00:18;;;;;;;7.07;4.22;;;18.00;99.90;;;;;;5007555;28;20616;-72
2023/05/01 06:02:44;;;;;;;6.97;4.00;;;18.20;99.90;;;;;;5002791;28;20217;-72
2023/05/01 06:05:10;;;;;;;5.63;3.38;;;18.20;99.20;;;;;;5006484;28;20236;-72
2023/05/01 06:07:36;;;;;;;5.43;3.92;;;17.50;98.70;;;;;;5008512;28;20197;-71
2023/05/01 06:10:04;;;;;;;8.75;4.68;;;17.30;99.70;;;;;;5008161;28;20213;-71
2023/05/01 06:12:31;;;;;;;9.02;4.25;;;16.70;99.90;;;;;;5007977;28;20213;-69
2023/05/01 06:14:57;;;;;;;6.93;3.92;;;17.60;99.90;;;;;;5002886;28;20225;-72
2023/05/01 06:17:23;;;;;;;5.93;4.32;;;18.30;98.20;;;;;;5005182;28;20212;-72
2023/05/01 06:19:51;;;;;;;8.98;4.70;;;18.30;97.40;;;;;;4999558;28;20361;-71
2023/05/01 06:22:17;;;;;;;13.80;8.13;;;19.00;96.40;;;;;;5009737;28;20242;-72
2023/05/01 06:24:43;;;;;;;8.07;4.05;;;19.10;96.10;;;;;;5005023;28;20181;-69
2023/05/01 06:27:09;;;;;;;7.05;4.40;;;19.50;94.70;;;;;;5010260;28;20189;-70
2023/05/01 06:29:34;;;;;;;6.35;4.50;;;19.40;94.90;;;;;;5009151;28;20692;-70
2023/05/01 06:32:00;;;;;;;5.68;4.03;;;18.90;94.30;;;;;;5004748;28;20213;-72
2023/05/01 06:34:25;;;;;;;6.30;3.92;;;18.70;95.00;;;;;;5007458;28;20219;-71
2023/05/01 06:36:51;;;;;;;8.10;3.95;;;19.10;93.80;;;;;;5003731;28;20215;-71
2023/05/01 06:39:16;;;;;;;5.82;3.72;;;18.90;94.20;;;;;;5007603;28;20184;-72
2023/05/01 06:41:46;;;;;;;6.57;3.92;;;18.70;93.90;;;;;;5004558;28;20263;-72
2023/05/01 06:44:11;;;;;;;5.57;3.45;;;18.40;93.70;;;;;;5007288;28;20275;-72
2023/05/01 06:46:37;;;;;;;4.78;3.42;;;18.90;94.10;;;;;;5007888;28;20296;-71
2023/05/01 06:49:03;;;;;;;7.15;3.10;;;19.30;93.70;;;;;;5007603;28;20217;-72
2023/05/01 06:51:30;;;;;;;7.57;4.40;;;19.10;93.40;;;;;;5004100;28;20177;-70
2023/05/01 06:53:56;;;;;;;7.30;3.63;;;18.80;93.10;;;;;;5002419;28;20216;-72
2023/05/01 06:56:21;;;;;;;7.93;4.07;;;19.10;93.80;;;;;;5008536;28;20588;-71
2023/05/01 06:58:47;;;;;;;8.10;3.63;;;19.20;93.40;;;;;;4999939;28;20202;-72
2023/05/01 07:01:13;;;;;;;7.32;3.63;;;18.30;93.90;;;;;;5002711;28;20239;-72
2023/05/01 07:03:38;;;;;;;9.13;4.32;;;18.70;94.40;;;;;;5005798;28;20419;-71
2023/05/01 07:06:04;;;;;;;8.48;3.83;;;19.30;93.00;;;;;;5005424;28;20221;-72
2023/05/01 07:08:30;;;;;;;5.32;3.35;;;19.80;93.00;;;;;;5008026;28;20217;-71
2023/05/01 07:10:56;;;;;;;6.30;3.80;;;19.50;92.70;;;;;;5008271;28;20237;-71
2023/05/01 07:13:23;;;;;;;7.15;3.30;;;20.50;92.00;;;;;;5008098;28;20324;-71
2023/05/01 07:15:49;;;;;;;7.60;3.60;;;20.50;91.20;;;;;;5004720;28;20713;-72
2023/05/01 07:18:16;;;;;;;6.85;3.95;;;20.40;91.10;;;;;;5009267;28;20621;-72
2023/05/01 07:20:41;;;;;;;11.43;6.10;;;20.40;91.40;;;;;;5002436;28;20208;-71
2023/05/01 07:23:08;;;;;;;6.30;3.58;;;19.90;91.20;;;;;;5003813;28;20206;-70
2023/05/01 07:25:40;;;;;;;16.75;7.88;;;20.70;91.20;;;;;;5007649;28;20240;-70
2023/05/01 07:28:06;;;;;;;10.75;4.57;;;21.10;90.40;;;;;;5004807;28;20658;-71
2023/05/01 07:30:32;;;;;;;12.52;5.22;;;20.70;89.70;;;;;;5001647;28;20177;-70
2023/05/01 07:32:58;;;;;;;7.00;3.70;;;21.50;89.80;;;;;;5002530;28;20337;-70
2023/05/01 07:35:24;;;;;;;6.45;3.25;;;21.50;88.80;;;;;;5002577;28;20208;-71
2023/05/01 07:37:50;;;;;;;5.30;3.33;;;21.30;88.50;;;;;;5000055;28;20756;-71
2023/05/01 07:40:16;;;;;;;7.93;3.87;;;21.50;88.40;;;;;;5007555;28;20407;-71
2023/05/01 07:42:42;;;;;;;7.68;4.38;;;19.80;88.20;;;;;;5038185;23;20290;-76
2023/05/01 07:45:08;;;;;;;6.72;3.47;;;19.60;90.20;;;;;;5026012;28;20183;-75
2023/05/01 07:47:34;;;;;;;5.63;3.75;;;19.60;91.20;;;;;;5029514;28;20258;-76
2023/05/01 07:50:02;;;;;;;5.68;3.28;;;20.20;91.30;;;;;;5028352;28;20216;-77
2023/05/01 07:52:28;;;;;;;8.65;3.20;;;20.30;90.70;;;;;;5029129;28;20208;-77
2023/05/01 07:54:54;;;;;;;7.68;3.50;;;20.00;91.00;;;;;;5023956;28;20710;-77
2023/05/01 07:57:22;;;;;;;5.50;3.22;;;20.80;91.30;;;;;;5019397;28;20276;-77
2023/05/01 07:59:47;;;;;;;6.75;3.13;;;20.50;90.90;;;;;;5025963;28;20204;-76
2023/05/01 08:02:16;;;;;;;5.65;3.30;;;20.70;90.90;;;;;;5025855;28;20212;-76
2023/05/01 08:04:41;;;;;;;5.57;3.22;;;19.80;91.40;;;;;;5021505;28;20196;-76
2023/05/01 08:07:07;;;;;;;7.28;3.45;;;19.60;91.40;;;;;;5023243;28;20208;-77
2023/05/01 08:09:33;;;;;;;6.20;3.03;;;19.80;92.30;;;;;;5023126;28;20191;-76
2023/05/01 08:11:59;;;;;;;7.40;3.53;;;19.90;92.00;;;;;;5018197;28;20206;-77
2023/05/01 08:14:24;;;;;;;5.75;2.95;;;20.80;92.10;;;;;;5022296;28;20211;-76
2023/05/01 08:16:54;;;;;;;7.63;3.58;;;21.50;91.00;;;;;;5021889;28;20212;-77
2023/05/01 08:19:20;;;;;;;6.60;2.90;;;21.40;90.80;;;;;;5021010;28;20262;-75
2023/05/01 08:21:45;;;;;;;6.55;2.90;;;19.60;90.60;;;;;;5018024;28;20174;-77
2023/05/01 08:24:11;;;;;;;4.43;2.97;;;18.90;91.90;;;;;;5024649;28;20179;-76
2023/05/01 08:26:37;;;;;;;3.22;2.35;;;19.00;92.20;;;;;;5028632;28;20208;-76
2023/05/01 08:29:03;;;;;;;8.02;3.15;;;18.60;92.10;;;;;;5025985;28;20209;-76
2023/05/01 08:31:28;;;;;;;6.45;3.17;;;18.10;93.00;;;;;;5028083;28;20713;-76
2023/05/01 08:33:54;;;;;;;6.93;2.80;;;19.00;93.00;;;;;;5022826;28;20191;-75
2023/05/01 08:36:20;;;;;;;4.47;2.40;;;19.10;92.20;;;;;;5024553;28;20219;-76
2023/05/01 08:38:45;;;;;;;8.68;2.65;;;18.70;92.20;;;;;;5023124;28;20238;-76
2023/05/01 08:41:17;;;;;;;7.43;3.08;;;18.60;92.00;;;;;;5021616;28;20786;-76
2023/05/01 08:43:43;;;;;;;4.85;2.70;;;18.90;91.20;;;;;;5027023;28;20707;-76
2023/05/01 08:46:11;;;;;;;6.05;2.50;;;18.70;91.00;;;;;;5026534;28;20196;-76
2023/05/01 08:48:39;;;;;;;5.82;2.75;;;18.30;91.00;;;;;;5026802;28;20172;-75
2023/05/01 08:51:05;;;;;;;6.93;2.53;;;18.60;91.90;;;;;;5025215;28;20205;-74
2023/05/01 08:53:32;;;;;;;5.45;2.83;;;18.90;91.10;;;;;;5025248;28;20212;-76
2023/05/01 08:55:59;;;;;;;4.47;2.47;;;18.70;91.50;;;;;;5022293;28;20220;-76
2023/05/01 08:58:26;;;;;;;5.32;2.53;;;18.60;92.00;;;;;;5024913;28;20208;-76
2023/05/01 09:00:55;;;;;;;5.03;2.45;;;18.50;91.70;;;;;;5020798;28;20181;-75
2023/05/01 09:03:21;;;;;;;5.65;2.67;;;18.30;91.60;;;;;;5024107;28;20291;-75
2023/05/01 09:05:47;;;;;;;6.97;2.67;;;17.80;91.50;;;;;;5029927;28;20212;-76
2023/05/01 09:08:13;;;;;;;5.25;2.38;;;17.70;92.30;;;;;;5031358;28;20215;-76
2023/05/01 09:10:44;;;;;;;5.32;2.53;;;18.10;92.10;;;;;;5030772;28;20208;-76
2023/05/01 09:13:10;;;;;;;7.30;2.40;;;17.70;91.80;;;;;;5027121;28;20222;-75
2023/05/01 09:15:35;;;;;;;5.07;2.10;;;17.90;92.00;;;;;;5030409;28;20287;-74
2023/05/01 09:18:01;;;;;;;3.72;2.17;;;18.00;91.80;;;;;;5027145;28;20209;-75
2023/05/01 09:20:27;;;;;;;3.40;2.15;;;17.90;91.80;;;;;;5030419;28;20200;-76
2023/05/01 09:22:58;;;;;;;5.15;2.58;;;17.80;92.40;;;;;;5026730;28;20205;-77
2023/05/01 09:25:24;;;;;;;5.53;2.38;;;17.90;92.20;;;;;;5027541;28;20209;-78
2023/05/01 09:27:49;;;;;;;5.05;2.50;;;18.20;92.20;;;;;;5031221;28;20180;-77
2023/05/01 09:30:38;;;;;;;4.25;2.78;;;18.00;92.60;;;;;;5031065;28;20208;-77
2023/05/01 09:33:15;;;;;;;5.57;2.30;;;17.90;92.60;;;;;;5026791;28;20220;-77
2023/05/01 09:35:52;;;;;;;5.13;2.00;;;18.20;92.80;;;;;;5024409;28;20239;-77
2023/05/01 09:38:22;;;;;;;4.72;2.28;;;18.10;91.50;;;;;;5026199;28;20211;-77
2023/05/01 09:40:48;;;;;;;6.10;2.60;;;18.50;91.70;;;;;;5021969;28;20205;-76
2023/05/01 09:43:26;;;;;;;9.52;2.80;;;18.70;91.30;;;;;;5024858;28;20212;-75
2023/05/01 09:46:04;;;;;;;5.78;3.40;;;18.60;91.80;;;;;;5024306;28;20195;-77
2023/05/01 09:48:30;;;;;;;7.82;2.60;;;18.70;92.00;;;;;;5022953;28;20176;-76
2023/05/01 09:50:55;;;;;;;7.85;2.58;;;18.20;91.90;;;;;;5024894;28;20216;-78
2023/05/01 09:53:39;;;;;;;6.95;2.70;;;18.10;92.10;;;;;;5027251;28;20705;-77
2023/05/01 09:56:06;;;;;;;5.75;2.38;;;18.20;92.20;;;;;;5029343;28;20216;-76
2023/05/01 09:58:31;;;;;;;4.82;2.42;;;18.10;92.20;;;;;;5030604;28;20204;-75
2023/05/01 10:00:57;;;;;;;4.45;2.83;;;17.80;92.90;;;;;;5026576;28;20577;-76
2023/05/01 10:03:23;;;;;;;6.30;3.00;;;17.90;93.30;;;;;;5027774;28;20506;-76
2023/05/01 10:05:48;;;;;;;6.90;2.65;;;17.80;93.40;;;;;;5024984;28;20696;-76
2023/05/01 10:08:14;;;;;;;5.65;2.80;;;17.70;93.60;;;;;;5027188;28;20630;-76
2023/05/01 10:10:42;;;;;;;13.38;8.80;;;17.80;93.80;;;;;;5025012;28;20703;-76
2023/05/01 10:13:17;;;;;;;6.35;3.25;;;17.80;94.00;;;;;;5023646;28;20218;-76
2023/05/01 10:15:47;;;;;;;5.55;2.42;;;18.50;93.90;;;;;;5022561;28;20204;-76
2023/05/01 10:18:13;;;;;;;5.40;2.75;;;18.80;93.10;;;;;;5023224;28;20168;-76
2023/05/01 10:20:39;;;;;;;7.53;2.83;;;18.60;93.00;;;;;;5019660;28;20244;-76
2023/05/01 10:23:05;;;;;;;6.55;3.08;;;18.80;93.60;;;;;;5021360;28;20305;-76
2023/05/01 10:25:32;;;;;;;4.80;3.45;;;18.80;92.70;;;;;;5021072;28;20200;-76
2023/05/01 10:28:02;;;;;;;7.10;3.25;;;18.90;92.60;;;;;;5028858;28;20176;-76
2023/05/01 10:30:29;;;;;;;5.20;2.80;;;18.20;93.20;;;;;;5030291;28;20176;-77
2023/05/01 10:32:54;;;;;;;4.80;2.90;;;18.30;93.70;;;;;;5021937;28;20250;-77
2023/05/01 10:35:39;;;;;;;6.35;3.20;;;18.20;94.00;;;;;;5029469;28;20283;-76
2023/05/01 10:38:18;;;;;;;3.25;2.65;;;18.40;94.40;;;;;;5026900;28;20680;-77
2023/05/01 10:40:45;;;;;;;5.82;2.72;;;18.20;94.30;;;;;;5025150;28;20204;-77
2023/05/01 10:43:28;;;;;;;6.75;3.15;;;18.20;94.40;;;;;;5023602;28;20365;-77
2023/05/01 10:46:25;;;;;;;5.72;3.53;;;18.10;94.50;;;;;;5024715;28;20252;-77
2023/05/01 10:48:55;;;;;;;4.35;3.45;;;18.70;94.70;;;;;;5023735;28;20184;-76
2023/05/01 10:51:26;;;;;;;11.85;3.35;;;18.70;94.00;;;;;;5030038;28;20673;-77
2023/05/01 10:54:13;;;;;;;6.53;3.40;;;18.30;94.00;;;;;;5021820;28;20435;-76
2023/05/01 10:56:41;;;;;;;6.55;3.95;;;18.40;94.60;;;;;;5022656;28;20329;-76
2023/05/01 10:59:07;;;;;;;6.72;2.65;;;18.50;94.00;;;;;;5022045;28;20204;-76
2023/05/01 11:01:38;;;;;;;7.30;3.45;;;18.60;94.00;;;;;;5021102;28;20215;-76
2023/05/01 11:04:07;;;;;;;6.45;2.88;;;18.70;94.20;;;;;;5025204;28;20201;-76
2023/05/01 11:06:33;;;;;;;7.50;3.55;;;18.90;93.80;;;;;;5019067;28;20251;-75
2023/05/01 11:09:00;;;;;;;5.30;3.45;;;18.50;94.00;;;;;;5025854;28;20212;-75
2023/05/01 11:11:25;;;;;;;6.05;3.38;;;18.20;94.50;;;;;;5027330;28;20642;-76
2023/05/01 11:14:01;;;;;;;7.15;3.00;;;18.00;95.00;;;;;;5027851;28;20358;-75
2023/05/01 11:16:42;;;;;;;4.80;3.17;;;18.00;95.00;;;;;;5028686;28;20222;-75
2023/05/01 11:19:21;;;;;;;5.47;3.35;;;17.80;95.10;;;;;;5027246;28;20238;-76
2023/05/01 11:21:47;;;;;;;5.45;3.22;;;17.80;95.20;;;;;;5024135;28;20264;-76
2023/05/01 11:24:13;;;;;;;6.22;4.13;;;17.90;95.60;;;;;;5029275;28;20184;-76
2023/05/01 11:26:41;;;;;;;28.23;15.38;;;18.00;95.40;;;;;;5023904;28;20582;-76
2023/05/01 11:29:11;;;;;;;8.55;3.42;;;18.10;96.00;;;;;;5024750;28;20201;-76
2023/05/01 11:31:38;;;;;;;6.93;3.42;;;18.40;95.30;;;;;;5022911;28;20204;-76
2023/05/01 11:34:07;;;;;;;5.40;3.20;;;18.70;95.20;;;;;;5024339;28;20722;-75
2023/05/01 11:36:52;;;;;;;5.20;3.10;;;18.70;94.70;;;;;;5022142;28;20224;-75
2023/05/01 11:39:18;;;;;;;6.90;3.35;;;18.90;94.30;;;;;;5027410;28;20200;-78
2023/05/01 11:41:44;;;;;;;7.85;3.72;;;18.90;93.90;;;;;;5022227;28;20201;-77
2023/05/01 11:44:16;;;;;;;4.85;3.40;;;19.20;94.00;;;;;;5021292;28;20214;-76
2023/05/01 11:46:41;;;;;;;5.45;3.90;;;19.20;93.80;;;;;;5021733;28;20200;-76
2023/05/01 11:49:08;;;;;;;10.23;6.45;;;19.20;93.00;;;;;;5023591;28;20200;-76
2023/05/01 11:51:34;;;;;;;8.43;3.03;;;19.10;93.30;;;;;;5029656;28;20522;-76
2023/05/01 11:54:00;;;;;;;6.93;3.17;;;19.20;93.40;;;;;;5027997;28;20214;-77
2023/05/01 11:56:26;;;;;;;4.95;3.22;;;19.50;93.30;;;;;;5028002;28;20655;-76
2023/05/01 11:58:56;;;;;;;7.35;3.65;;;19.00;93.70;;;;;;5025964;28;20208;-77
2023/05/01 12:01:36;;;;;;;7.00;4.18;;;19.00;93.80;;;;;;5025672;28;20234;-77
2023/05/01 12:04:02;;;;;;;5.28;3.17;;;19.10;93.70;;;;;;5025115;28;20263;-76
2023/05/01 12:06:45;;;;;;;8.43;3.33;;;19.10;93.40;;;;;;5024398;28;20173;-75
2023/05/01 12:09:16;;;;;;;13.18;3.38;;;19.10;93.20;;;;;;5019732;28;20291;-77
2023/05/01 12:11:42;;;;;;;7.90;3.80;;;18.80;93.30;;;;;;5021919;28;20205;-77
2023/05/01 12:14:09;;;;;;;4.70;3.35;;;18.50;93.60;;;;;;5022445;28;20204;-77
2023/05/01 12:16:35;;;;;;;3.90;3.22;;;18.40;93.90;;;;;;5021263;28;20220;-76
2023/05/01 12:19:01;;;;;;;6.25;3.40;;;18.60;94.10;;;;;;5023622;28;20220;-77
2023/05/01 12:21:27;;;;;;;7.43;3.78;;;18.70;94.00;;;;;;5025357;28;20578;-78
2023/05/01 12:23:53;;;;;;;5.50;3.45;;;18.60;93.50;;;;;;5023789;28;20217;-77
2023/05/01 12:26:24;;;;;;;5.43;3.47;;;18.90;93.70;;;;;;5025226;28;20204;-76
2023/05/01 12:29:00;;;;;;;6.40;3.63;;;18.90;93.40;;;;;;5022360;28;20209;-77
2023/05/01 12:31:28;;;;;;;7.55;3.53;;;18.80;93.90;;;;;;5029157;28;20209;-77
2023/05/01 12:34:02;;;;;;;6.80;3.63;;;18.80;93.90;;;;;;5031585;28;20196;-77
2023/05/01 12:36:30;;;;;;;6.18;3.47;;;19.00;94.30;;;;;;5032364;28;20185;-77
2023/05/01 12:39:06;;;;;;;7.68;3.83;;;19.00;94.50;;;;;;5030371;28;20208;-77
2023/05/01 12:41:47;;;;;;;9.35;3.50;;;18.80;94.20;;;;;;5031703;28;20501;-76
2023/05/01 12:44:26;;;;;;;5.95;3.20;;;18.90;94.10;;;;;;5021184;28;20270;-76
2023/05/01 12:46:59;;;;;;;7.72;3.85;;;19.00;93.30;;;;;;5026877;28;20212;-77
2023/05/01 12:49:26;;;;;;;7.18;3.80;;;19.20;93.00;;;;;;5028571;28;20698;-76
2023/05/01 12:51:54;;;;;;;8.57;4.30;;;19.40;93.10;;;;;;5023799;28;20247;-75